createdAt,value
2018-06-13T00:01:27.861Z,19.3
2018-06-13T00:11:27.239Z,21.8
2018-06-13T00:21:27.006Z,21.5
2018-06-13T00:31:26.636Z,18.1
2018-06-13T00:41:30.296Z,16.6
2018-06-13T00:51:26.383Z,14.5
2018-06-13T01:01:27.030Z,14.3
2018-06-13T01:11:26.511Z,17.4
2018-06-13T01:21:27.728Z,17.3
2018-06-13T01:31:26.353Z,14.3
2018-06-13T01:41:28.065Z,14.3
2018-06-13T01:51:27.099Z,16.0
2018-06-13T02:01:26.036Z,17.5
2018-06-13T02:11:27.785Z,14.1
2018-06-13T02:21:26.872Z,13.9
2018-06-13T02:31:27.666Z,17.0
2018-06-13T02:41:26.424Z,16.2
2018-06-13T02:51:28.658Z,16.2
2018-06-13T03:01:27.636Z,14.5
2018-06-13T03:11:28.559Z,21.6
2018-06-13T03:21:25.742Z,15.0
2018-06-13T03:31:27.490Z,17.6
2018-06-13T03:41:27.636Z,21.0
2018-06-13T03:51:26.424Z,18.0
2018-06-13T04:01:26.233Z,17.5
2018-06-13T04:11:26.518Z,17.3
2018-06-13T04:21:25.387Z,14.0
2018-06-13T04:31:27.304Z,17.5
2018-06-13T04:41:26.135Z,17.6
2018-06-13T04:51:26.366Z,16.4
2018-06-13T05:01:27.416Z,17.7
2018-06-13T05:11:27.599Z,18.9
2018-06-13T05:21:26.187Z,24.3
2018-06-13T05:31:26.893Z,24.7
2018-06-13T05:41:26.605Z,24.5
2018-06-13T05:51:26.617Z,25.0
2018-06-13T06:01:27.988Z,22.9
2018-06-13T06:11:29.081Z,24.4
2018-06-13T06:21:27.334Z,31.3
2018-06-13T06:31:26.426Z,21.6
2018-06-13T06:41:27.436Z,21.4
2018-06-13T07:42:38.274Z,15.7
2018-06-13T07:51:32.539Z,16.8
2018-06-13T08:21:49.863Z,16.5
2018-06-13T08:31:31.702Z,14.9
2018-06-13T08:41:33.798Z,21.4
2018-06-13T08:51:32.513Z,24.6
2018-06-13T09:01:32.594Z,17.4
2018-06-13T09:11:31.812Z,17.3
2018-06-13T09:21:31.494Z,16.4
2018-06-13T09:31:32.356Z,16.4
2018-06-13T09:41:33.521Z,12.9
2018-06-13T09:51:27.324Z,14.3
2018-06-13T10:01:26.097Z,15.5
2018-06-13T10:11:27.104Z,12.9
2018-06-13T10:21:26.109Z,14.4
2018-06-13T10:31:31.725Z,13.1
2018-06-13T10:41:28.108Z,13.6
2018-06-13T10:51:26.225Z,15.5
2018-06-13T11:01:26.965Z,13.3
2018-06-13T11:11:26.076Z,14.6
2018-06-13T11:21:26.721Z,12.3
2018-06-13T11:31:27.718Z,15.4
2018-06-13T11:41:27.065Z,14.4
2018-06-13T11:51:33.795Z,17.1
2018-06-13T12:01:27.021Z,10.9
2018-06-13T12:11:27.264Z,16.6
2018-06-13T12:21:31.765Z,15.8
2018-06-13T12:31:30.978Z,14.8
2018-06-13T12:41:26.397Z,9.5
2018-06-13T12:51:37.748Z,11.6
2018-06-13T13:01:25.577Z,12.8
2018-06-13T13:11:26.658Z,12.2
2018-06-13T13:21:25.953Z,10.1
2018-06-13T13:31:31.472Z,12.0
2018-06-13T13:41:31.659Z,10.7
2018-06-13T13:51:33.163Z,10.0
2018-06-13T14:01:32.971Z,11.0
2018-06-13T14:11:26.032Z,9.1
2018-06-13T14:21:25.968Z,9.2
2018-06-13T14:31:26.030Z,9.7
2018-06-13T14:41:26.337Z,12.4
2018-06-13T14:51:26.747Z,9.0
2018-06-13T15:01:25.778Z,13.2
2018-06-13T15:11:25.893Z,10.9
2018-06-13T15:21:27.206Z,11.7
2018-06-13T15:31:26.069Z,11.0
2018-06-13T15:41:26.084Z,10.7
2018-06-13T15:51:26.476Z,9.2
2018-06-13T16:01:26.846Z,10.3
2018-06-13T16:11:25.516Z,10.8
2018-06-13T16:21:26.423Z,10.0
2018-06-13T16:31:27.286Z,9.8
2018-06-13T16:41:27.155Z,9.6
2018-06-13T16:51:26.995Z,10.8
2018-06-13T17:01:25.851Z,9.3
2018-06-13T17:11:26.252Z,9.6
2018-06-13T17:21:26.196Z,8.4
2018-06-13T17:31:29.126Z,12.3
2018-06-13T17:41:27.293Z,9.7
2018-06-13T17:51:26.754Z,8.4
2018-06-13T18:01:25.898Z,15.0
2018-06-13T18:11:27.199Z,10.8
2018-06-13T18:21:27.020Z,8.0
2018-06-13T18:31:27.718Z,9.1
2018-06-13T18:41:25.463Z,7.8
2018-06-13T18:51:28.952Z,13.9
2018-06-13T19:01:25.824Z,9.0
2018-06-13T19:11:28.043Z,8.5
2018-06-13T19:21:27.492Z,8.6
2018-06-13T19:31:26.324Z,12.6
2018-06-13T19:41:26.511Z,11.3
2018-06-13T19:51:26.907Z,9.5
2018-06-13T20:01:26.848Z,15.0
2018-06-13T20:11:26.159Z,11.8
2018-06-13T20:21:26.168Z,13.1
2018-06-13T20:31:28.370Z,14.0
2018-06-13T20:41:26.863Z,15.0
2018-06-13T20:51:51.984Z,11.6
2018-06-13T21:01:32.415Z,12.1
2018-06-13T21:11:47.860Z,13.2
2018-06-13T22:32:27.106Z,14.9
2018-06-13T22:42:17.379Z,13.0
2018-06-13T23:01:33.717Z,16.1
2018-06-13T23:11:33.682Z,15.8
2018-06-13T23:21:32.123Z,14.8
2018-06-13T23:31:39.324Z,12.6
2018-06-13T23:41:32.936Z,16.5
